Time;durP1;ratioP1;P1;durP2;ratioP2;P2;SDS_P1;SDS_P2;PMS_P1;PMS_P2;Temp;Humidity;BMP_temperature;BMP_pressure;BME280_temperature;BME280_humidity;BME280_pressure;Samples;Min_cycle;Max_cycle;Signal;HPM_P1;HPM_P2
2023/06/10 00:01:16;;;;;;;7.65;5.65;;;;;;;;;;4974280;28;20550;-75
2023/06/10 00:03:44;;;;;;;6.10;5.35;;;;;;;;;;4974547;28;20066;-75
2023/06/10 00:06:11;;;;;;;6.25;5.65;;;;;;;;;;4955260;28;20495;-75
2023/06/10 00:08:39;;;;;;;5.82;5.22;;;;;;;;;;4957227;28;20062;-75
2023/06/10 00:11:06;;;;;;;5.45;4.90;;;;;;;;;;4972717;28;20066;-74
2023/06/10 00:13:33;;;;;;;5.85;4.93;;;;;;;;;;4941220;28;20066;-75
2023/06/10 00:16:06;;;;;;;6.07;5.40;;;;;;;;;;4970499;28;20505;-74
2023/06/10 00:18:33;;;;;;;6.97;6.28;;;;;;;;;;4986495;28;20144;-74
2023/06/10 00:21:04;;;;;;;6.65;5.20;;;;;;;;;;4995954;28;20112;-74
2023/06/10 00:23:31;;;;;;;5.65;5.18;;;;;;;;;;5012115;28;20058;-74
2023/06/10 00:25:59;;;;;;;5.78;5.25;;;;;;;;;;4962985;28;20096;-74
2023/06/10 00:28:26;;;;;;;6.13;5.22;;;;;;;;;;4941523;28;20090;-74
2023/06/10 00:30:53;;;;;;;5.63;5.13;;;;;;;;;;4940816;28;20427;-74
2023/06/10 00:33:20;;;;;;;6.07;5.00;;;;;;;;;;4972637;28;20054;-74
2023/06/10 00:35:46;;;;;;;6.32;5.25;;;;;;;;;;4956749;28;20089;-74
2023/06/10 00:38:14;;;;;;;5.47;4.93;;;;;;;;;;4941379;28;20408;-74
2023/06/10 00:40:42;;;;;;;6.07;5.10;;;;;;;;;;4941532;28;20105;-74
2023/06/10 00:43:26;;;;;;;6.38;5.50;;;;;;;;;;4959106;28;20055;-74
2023/06/10 00:46:03;;;;;;;8.35;5.60;;;;;;;;;;4983427;28;20058;-75
2023/06/10 00:48:36;;;;;;;6.68;5.20;;;;;;;;;;4962809;28;20047;-74
2023/06/10 00:51:19;;;;;;;6.22;5.57;;;;;;;;;;4958100;28;20054;-75
2023/06/10 00:53:51;;;;;;;5.65;5.15;;;;;;;;;;4959955;28;20431;-76
2023/06/10 00:56:18;;;;;;;5.20;4.75;;;;;;;;;;4972501;28;20086;-75
2023/06/10 00:58:45;;;;;;;5.88;5.30;;;;;;;;;;4955808;28;20051;-76
2023/06/10 01:01:12;;;;;;;6.15;5.43;;;;;;;;;;4971969;28;20058;-74
2023/06/10 01:03:39;;;;;;;5.82;5.32;;;;;;;;;;4972243;28;20182;-74
2023/06/10 01:06:24;;;;;;;7.55;6.65;;;;;;;;;;4967938;28;20137;-72
2023/06/10 01:08:58;;;;;;;5.70;5.20;;;;;;;;;;4958379;28;20090;-75
2023/06/10 01:12:03;;;;;;;7.28;6.03;;;;;;;;;;4967060;28;20101;-74
2023/06/10 01:14:31;;;;;;;;;;;;;;;;;;4971544;28;20054;-75
2023/06/10 01:17:00;;;;;;;7.20;5.53;;;;;;;;;;4990272;28;19972;-76
2023/06/10 01:19:28;;;;;;;6.90;5.65;;;;;;;;;;4991397;28;20439;-75
2023/06/10 01:21:55;;;;;;;6.25;5.65;;;;;;;;;;4971025;28;20055;-75
2023/06/10 01:24:21;;;;;;;6.20;5.65;;;;;;;;;;4956111;28;20117;-75
2023/06/10 01:26:50;;;;;;;6.32;5.82;;;;;;;;;;4971551;28;20062;-75
2023/06/10 01:29:19;;;;;;;6.50;5.90;;;;;;;;;;4955826;28;20055;-75
2023/06/10 01:32:16;;;;;;;5.63;5.07;;;;;;;;;;4976166;28;20046;-75
2023/06/10 01:34:43;;;;;;;6.68;5.93;;;;;;;;;;4951378;28;20067;-75
2023/06/10 01:37:12;;;;;;;6.80;5.90;;;;;;;;;;4955544;28;20054;-76
2023/06/10 01:39:39;;;;;;;6.18;5.60;;;;;;;;;;4955694;28;20138;-75
2023/06/10 01:42:06;;;;;;;8.35;5.70;;;;;;;;;;4963752;28;20055;-75
2023/06/10 01:44:33;;;;;;;6.38;5.75;;;;;;;;;;4975072;28;20061;-75
2023/06/10 01:47:00;;;;;;;6.75;6.10;;;;;;;;;;4974708;28;20081;-75
2023/06/10 01:49:28;;;;;;;6.88;6.28;;;;;;;;;;4990907;28;20065;-75
2023/06/10 01:51:55;;;;;;;7.22;6.00;;;;;;;;;;4970979;28;20047;-75
2023/06/10 01:54:22;;;;;;;7.50;6.35;;;;;;;;;;4971649;28;20066;-75
2023/06/10 01:56:48;;;;;;;6.93;6.22;;;;;;;;;;4972541;28;20125;-74
2023/06/10 01:59:15;;;;;;;7.03;6.35;;;;;;;;;;4971526;28;20109;-75
2023/06/10 02:01:42;;;;;;;6.25;5.68;;;;;;;;;;4956959;28;20047;-75
2023/06/10 02:04:09;;;;;;;7.35;5.65;;;;;;;;;;4972340;28;20109;-75
2023/06/10 02:06:37;;;;;;;7.05;6.38;;;;;;;;;;4971038;28;20054;-75
2023/06/10 02:09:04;;;;;;;6.63;5.45;;;;;;;;;;4970845;28;20452;-75
2023/06/10 02:11:31;;;;;;;6.55;5.95;;;;;;;;;;4973201;28;20055;-76
2023/06/10 02:13:58;;;;;;;6.13;5.55;;;;;;;;;;4970989;28;20500;-75
2023/06/10 02:16:25;;;;;;;5.70;5.20;;;;;;;;;;4972168;28;20047;-74
2023/06/10 02:18:52;;;;;;;6.55;5.90;;;;;;;;;;4955162;28;20050;-74
2023/06/10 02:21:18;;;;;;;7.00;6.38;;;;;;;;;;4971956;28;20132;-76
2023/06/10 02:23:45;;;;;;;7.28;6.57;;;;;;;;;;4972173;28;20043;-75
2023/06/10 02:26:12;;;;;;;7.72;6.93;;;;;;;;;;4955373;28;20066;-74
2023/06/10 02:28:42;;;;;;;8.45;7.65;;;;;;;;;;4955075;28;20057;-76
2023/06/10 02:31:09;;;;;;;9.48;6.80;;;;;;;;;;4956273;28;20062;-75
2023/06/10 02:33:39;;;;;;;7.47;6.78;;;;;;;;;;4955189;28;20079;-76
2023/06/10 02:36:07;;;;;;;7.63;6.88;;;;;;;;;;4955559;28;20518;-75
2023/06/10 02:38:33;;;;;;;10.05;9.13;;;;;;;;;;4955228;28;20097;-74
2023/06/10 02:41:00;;;;;;;11.50;9.18;;;;;;;;;;4970801;28;20051;-75
2023/06/10 02:43:27;;;;;;;8.45;7.65;;;;;;;;;;4989113;28;20120;-76
2023/06/10 02:45:54;;;;;;;10.23;8.70;;;;;;;;;;4974434;28;20492;-76
2023/06/10 02:48:24;;;;;;;8.77;8.00;;;;;;;;;;4991629;28;20053;-75
2023/06/10 02:50:50;;;;;;;10.18;9.13;;;;;;;;;;4989936;28;20494;-74
2023/06/10 02:53:17;;;;;;;10.82;7.93;;;;;;;;;;4988940;28;20742;-75
2023/06/10 02:55:44;;;;;;;8.77;7.97;;;;;;;;;;4990572;28;20047;-74
2023/06/10 02:58:11;;;;;;;9.25;8.35;;;;;;;;;;4974856;28;20073;-75
2023/06/10 03:00:40;;;;;;;8.45;7.30;;;;;;;;;;4990732;28;20054;-75
2023/06/10 03:03:08;;;;;;;7.95;7.20;;;;;;;;;;4973981;28;20638;-74
2023/06/10 03:05:35;;;;;;;7.25;6.55;;;;;;;;;;4991248;28;20237;-75
2023/06/10 03:08:02;;;;;;;8.23;7.43;;;;;;;;;;4990832;28;20431;-75
2023/06/10 03:10:28;;;;;;;8.35;7.55;;;;;;;;;;5006327;28;20054;-75
2023/06/10 03:12:55;;;;;;;7.78;6.97;;;;;;;;;;4972278;28;20050;-75
2023/06/10 03:15:24;;;;;;;9.25;7.20;;;;;;;;;;4990317;28;20116;-75
2023/06/10 03:17:51;;;;;;;10.23;6.70;;;;;;;;;;4974367;28;20097;-75
2023/06/10 03:20:18;;;;;;;7.50;6.55;;;;;;;;;;5006629;28;20108;-76
2023/06/10 03:22:45;;;;;;;7.90;6.97;;;;;;;;;;4989752;28;20467;-75
2023/06/10 03:25:13;;;;;;;8.48;6.68;;;;;;;;;;4974339;28;20051;-76
2023/06/10 03:27:42;;;;;;;7.57;6.88;;;;;;;;;;4974372;28;20139;-76
2023/06/10 03:30:10;;;;;;;6.97;6.28;;;;;;;;;;4942152;28;20511;-76
2023/06/10 03:32:37;;;;;;;8.32;7.25;;;;;;;;;;4953489;28;20471;-77
2023/06/10 03:35:04;;;;;;;7.22;6.47;;;;;;;;;;4977730;28;20046;-76
2023/06/10 03:37:32;;;;;;;7.20;6.50;;;;;;;;;;4993572;28;20120;-75
2023/06/10 03:39:59;;;;;;;7.78;7.07;;;;;;;;;;4997673;28;20046;-76
2023/06/10 03:42:25;;;;;;;8.50;7.47;;;;;;;;;;4986401;28;20050;-76
2023/06/10 03:44:52;;;;;;;8.77;6.85;;;;;;;;;;4958121;28;20400;-75
2023/06/10 03:47:19;;;;;;;7.53;6.82;;;;;;;;;;4974032;28;20054;-76
2023/06/10 03:49:46;;;;;;;8.85;6.95;;;;;;;;;;4974022;28;20651;-75
2023/06/10 03:52:13;;;;;;;7.65;6.88;;;;;;;;;;4957953;28;20110;-74
2023/06/10 03:54:40;;;;;;;7.28;6.68;;;;;;;;;;4961929;28;20068;-81
2023/06/10 03:57:07;;;;;;;7.90;7.10;;;;;;;;;;4966076;28;20050;-81
2023/06/10 03:59:33;;;;;;;7.35;6.65;;;;;;;;;;4981045;28;20513;-85
2023/06/10 04:02:01;;;;;;;7.90;7.20;;;;;;;;;;4981532;28;20058;-84
2023/06/10 04:04:28;;;;;;;7.53;6.82;;;;;;;;;;4995029;28;20137;-82
2023/06/10 04:06:55;;;;;;;8.52;7.50;;;;;;;;;;5010730;28;20053;-81
2023/06/10 04:09:22;;;;;;;7.80;7.00;;;;;;;;;;4983544;28;20570;-82
2023/06/10 04:11:49;;;;;;;8.75;7.95;;;;;;;;;;4991189;28;20426;-81
2023/06/10 04:14:16;;;;;;;8.02;7.22;;;;;;;;;;5011129;28;20046;-91
2023/06/10 04:16:52;;;;;;;7.43;6.70;;;;;;;;;;4982552;28;20046;-91
2023/06/10 04:19:33;;;;;;;7.93;7.13;;;;;;;;;;4983847;28;20055;-80
2023/06/10 04:22:03;;;;;;;7.32;6.63;;;;;;;;;;4958576;28;20054;-80
2023/06/10 04:24:30;;;;;;;8.13;6.68;;;;;;;;;;4942798;28;20051;-79
2023/06/10 04:26:57;;;;;;;7.85;7.15;;;;;;;;;;4961409;28;20109;-78
2023/06/10 04:29:25;;;;;;;7.55;6.85;;;;;;;;;;4993091;28;20054;-78
2023/06/10 04:31:52;;;;;;;8.73;6.82;;;;;;;;;;4959998;28;20082;-76
2023/06/10 04:34:19;;;;;;;7.55;6.85;;;;;;;;;;4973902;28;20126;-79
2023/06/10 04:36:45;;;;;;;7.68;6.97;;;;;;;;;;4990898;28;20055;-82
2023/06/10 04:39:12;;;;;;;8.05;6.93;;;;;;;;;;4972923;28;20572;-82
2023/06/10 04:41:39;;;;;;;6.90;6.20;;;;;;;;;;4994692;28;20055;-81
2023/06/10 04:44:06;;;;;;;7.47;6.78;;;;;;;;;;4984164;28;20395;-82
2023/06/10 04:46:33;;;;;;;7.38;6.32;;;;;;;;;;4993549;28;20062;-81
2023/06/10 04:49:00;;;;;;;6.85;6.15;;;;;;;;;;4978270;28;20062;-82
2023/06/10 04:51:27;;;;;;;7.90;6.22;;;;;;;;;;4995911;28;20046;-81
2023/06/10 04:53:54;;;;;;;6.03;5.38;;;;;;;;;;4979808;28;20470;-82
2023/06/10 04:56:22;;;;;;;6.30;5.57;;;;;;;;;;4996377;28;20101;-81
2023/06/10 04:58:48;;;;;;;6.85;6.25;;;;;;;;;;4963102;28;20054;-80
2023/06/10 05:01:15;;;;;;;6.53;5.05;;;;;;;;;;4986082;28;20053;-81
2023/06/10 05:03:42;;;;;;;6.03;5.50;;;;;;;;;;4975630;28;20050;-81
2023/06/10 05:06:09;;;;;;;6.65;5.20;;;;;;;;;;4958867;28;20077;-81
2023/06/10 05:08:36;;;;;;;6.57;5.65;;;;;;;;;;4992403;28;20145;-81
2023/06/10 05:11:03;;;;;;;5.95;5.35;;;;;;;;;;4994180;28;20109;-81
2023/06/10 05:13:30;;;;;;;5.78;5.28;;;;;;;;;;4977991;28;20109;-81
2023/06/10 05:16:00;;;;;;;5.97;5.38;;;;;;;;;;4993794;28;20486;-81
2023/06/10 05:18:27;;;;;;;5.20;4.72;;;;;;;;;;4977473;28;20105;-81
2023/06/10 05:20:53;;;;;;;5.68;5.18;;;;;;;;;;4978016;28;20507;-81
2023/06/10 05:23:20;;;;;;;7.45;5.22;;;;;;;;;;4994269;28;20050;-81
2023/06/10 05:25:47;;;;;;;6.53;5.85;;;;;;;;;;4995734;28;20124;-81
2023/06/10 05:28:14;;;;;;;5.70;5.20;;;;;;;;;;4994342;28;20065;-81
2023/06/10 05:30:41;;;;;;;5.55;5.07;;;;;;;;;;4977773;28;20054;-81
2023/06/10 05:33:08;;;;;;;5.10;4.60;;;;;;;;;;4995227;28;20062;-81
2023/06/10 05:35:35;;;;;;;6.32;5.50;;;;;;;;;;4995503;28;20077;-82
2023/06/10 05:38:02;;;;;;;6.93;4.75;;;;;;;;;;4995792;28;20054;-81
2023/06/10 05:40:29;;;;;;;5.32;4.82;;;;;;;;;;4963347;28;20058;-81
2023/06/10 05:42:56;;;;;;;7.63;5.00;;;;;;;;;;4974891;28;20075;-81
2023/06/10 05:45:23;;;;;;;4.70;4.32;;;;;;;;;;4964442;28;20510;-81
2023/06/10 05:47:50;;;;;;;6.68;5.15;;;;;;;;;;4960481;28;20499;-81
2023/06/10 05:50:17;;;;;;;5.80;4.60;;;;;;;;;;4960544;28;20055;-80
2023/06/10 05:52:44;;;;;;;5.22;4.72;;;;;;;;;;4958840;28;20047;-81
2023/06/10 05:55:11;;;;;;;5.10;4.50;;;;;;;;;;4943377;28;20050;-81
2023/06/10 05:57:38;;;;;;;4.55;4.10;;;;;;;;;;4958993;28;20121;-81
2023/06/10 06:00:05;;;;;;;5.10;4.55;;;;;;;;;;4991952;28;20042;-81
2023/06/10 06:02:43;;;;;;;4.40;4.00;;;;;;;;;;4998361;28;20031;-81
2023/06/10 06:05:10;;;;;;;5.70;5.10;;;;;;;;;;4982827;28;20099;-80
2023/06/10 06:07:37;;;;;;;5.88;4.38;;;;;;;;;;4996183;28;20089;-82
2023/06/10 06:10:04;;;;;;;4.72;4.18;;;;;;;;;;5012322;28;20070;-76
2023/06/10 06:12:31;;;;;;;5.43;4.93;;;;;;;;;;4985666;28;20051;-81
2023/06/10 06:14:58;;;;;;;5.03;4.53;;;;;;;;;;4998875;28;20042;-75
2023/06/10 06:17:25;;;;;;;4.70;4.30;;;;;;;;;;5002329;28;20057;-74
2023/06/10 06:19:52;;;;;;;5.28;4.63;;;;;;;;;;4989576;28;20093;-75
2023/06/10 06:22:21;;;;;;;5.45;4.95;;;;;;;;;;4991292;28;20522;-78
2023/06/10 06:24:49;;;;;;;4.70;4.30;;;;;;;;;;4972916;28;20057;-78
2023/06/10 06:27:16;;;;;;;5.13;4.65;;;;;;;;;;4990373;28;20046;-77
2023/06/10 06:29:43;;;;;;;5.25;4.75;;;;;;;;;;4990616;28;20058;-77
2023/06/10 06:32:11;;;;;;;6.72;4.88;;;;;;;;;;4989732;28;20081;-77
2023/06/10 06:34:38;;;;;;;5.38;4.88;;;;;;;;;;4973358;28;20510;-77
2023/06/10 06:37:05;;;;;;;4.63;4.18;;;;;;;;;;4973250;28;20054;-77
2023/06/10 06:39:32;;;;;;;4.25;3.85;;;;;;;;;;4970541;28;20086;-77
2023/06/10 06:41:58;;;;;;;6.05;4.55;;;;;;;;;;4990237;28;20474;-77
2023/06/10 06:44:25;;;;;;;4.43;4.03;;;;;;;;;;4988251;28;20090;-77
2023/06/10 06:46:52;;;;;;;4.68;4.28;;;;;;;;;;4973157;28;20569;-78
2023/06/10 06:49:19;;;;;;;4.25;3.85;;;;;;;;;;4989963;28;20113;-77
2023/06/10 06:51:46;;;;;;;4.30;3.90;;;;;;;;;;4988958;28;20404;-77
2023/06/10 06:54:13;;;;;;;4.50;4.10;;;;;;;;;;4988403;28;20050;-76
2023/06/10 06:56:40;;;;;;;4.50;4.10;;;;;;;;;;4991075;28;20090;-77
2023/06/10 06:59:06;;;;;;;4.63;4.18;;;;;;;;;;4992658;28;20046;-78
2023/06/10 07:01:34;;;;;;;5.25;4.75;;;;;;;;;;4990238;28;20066;-77
2023/06/10 07:04:01;;;;;;;6.05;4.30;;;;;;;;;;4992406;28;20085;-76
2023/06/10 07:06:28;;;;;;;4.55;4.15;;;;;;;;;;4989169;28;20055;-77
2023/06/10 07:08:55;;;;;;;4.25;3.88;;;;;;;;;;4992656;28;20116;-77
2023/06/10 07:11:22;;;;;;;4.72;4.32;;;;;;;;;;4994087;28;20050;-77
2023/06/10 07:13:48;;;;;;;4.78;4.38;;;;;;;;;;4992735;28;20043;-78
2023/06/10 07:16:15;;;;;;;5.03;4.50;;;;;;;;;;4976721;28;20100;-77
2023/06/10 07:18:42;;;;;;;5.65;4.35;;;;;;;;;;4989812;28;20065;-77
2023/06/10 07:21:09;;;;;;;4.68;4.15;;;;;;;;;;4973913;28;20059;-77
2023/06/10 07:23:36;;;;;;;4.75;4.00;;;;;;;;;;4967156;28;20179;-76
2023/06/10 07:26:03;;;;;;;4.30;3.90;;;;;;;;;;4992830;28;20531;-77
2023/06/10 07:28:30;;;;;;;4.57;4.18;;;;;;;;;;4992483;28;20058;-76
2023/06/10 07:30:57;;;;;;;6.03;4.35;;;;;;;;;;4989077;28;20055;-77
2023/06/10 07:33:24;;;;;;;4.07;3.75;;;;;;;;;;4983217;28;20054;-77
2023/06/10 07:35:51;;;;;;;6.82;5.18;;;;;;;;;;4969307;28;20565;-76
2023/06/10 07:38:18;;;;;;;8.43;4.97;;;;;;;;;;4993303;28;20392;-77
2023/06/10 07:40:45;;;;;;;5.45;4.10;;;;;;;;;;4977105;28;20104;-76
2023/06/10 07:43:12;;;;;;;4.93;4.53;;;;;;;;;;4969834;28;20647;-79
2023/06/10 07:45:42;;;;;;;4.50;4.07;;;;;;;;;;4959778;28;20109;-78
2023/06/10 07:48:09;;;;;;;4.93;4.38;;;;;;;;;;4970911;28;20046;-80
2023/06/10 07:50:36;;;;;;;7.32;5.57;;;;;;;;;;4978680;28;20063;-80
2023/06/10 07:53:03;;;;;;;5.30;4.20;;;;;;;;;;4963100;28;20166;-80
2023/06/10 07:55:30;;;;;;;5.25;4.75;;;;;;;;;;5003055;28;20799;-80
2023/06/10 07:57:57;;;;;;;11.93;7.10;;;;;;;;;;4954380;28;20110;-80
2023/06/10 08:00:24;;;;;;;5.93;5.43;;;;;;;;;;4994907;28;20054;-81
2023/06/10 08:02:51;;;;;;;5.05;4.03;;;;;;;;;;4982025;28;20050;-79
2023/06/10 08:05:19;;;;;;;4.60;4.20;;;;;;;;;;4987146;28;20511;-80
2023/06/10 08:07:46;;;;;;;12.68;7.05;;;;;;;;;;4994823;28;20046;-79
2023/06/10 08:10:13;;;;;;;10.57;6.32;;;;;;;;;;4972087;28;20046;-80
2023/06/10 08:12:39;;;;;;;5.43;4.28;;;;;;;;;;4989001;28;20051;-79
2023/06/10 08:15:07;;;;;;;4.93;4.47;;;;;;;;;;4991460;28;20047;-80
2023/06/10 08:17:35;;;;;;;4.30;3.90;;;;;;;;;;4981098;28;20545;-79
2023/06/10 08:20:02;;;;;;;5.25;4.85;;;;;;;;;;4980249;28;20073;-79
2023/06/10 08:22:29;;;;;;;6.32;4.82;;;;;;;;;;4997177;28;20062;-79
2023/06/10 08:24:56;;;;;;;6.15;4.45;;;;;;;;;;4994349;28;20046;-80
2023/06/10 08:27:23;;;;;;;4.80;4.30;;;;;;;;;;4994585;28;20125;-80
2023/06/10 08:29:50;;;;;;;5.07;4.53;;;;;;;;;;4956584;28;20050;-79
2023/06/10 08:32:17;;;;;;;4.75;4.28;;;;;;;;;;4980265;28;20050;-80
2023/06/10 08:34:44;;;;;;;4.20;3.80;;;;;;;;;;4988414;28;20050;-80
2023/06/10 08:37:11;;;;;;;5.32;3.85;;;;;;;;;;4983697;28;20050;-80
2023/06/10 08:39:37;;;;;;;5.03;4.53;;;;;;;;;;5000960;28;20058;-80
2023/06/10 08:42:44;;;;;;;4.65;4.25;;;;;;;;;;4996263;28;20058;-80
2023/06/10 08:45:17;;;;;;;4.70;4.30;;;;;;;;;;4988906;28;20357;-80
2023/06/10 08:47:48;;;;;;;4.50;4.20;;;;;;;;;;4975799;28;20054;-79
2023/06/10 08:50:15;;;;;;;4.47;4.07;;;;;;;;;;4980348;28;20126;-80
2023/06/10 08:52:44;;;;;;;4.22;3.63;;;;;;;;;;4971852;28;20089;-80
2023/06/10 08:55:12;;;;;;;5.45;3.92;;;;;;;;;;5006465;28;20054;-79
2023/06/10 08:57:39;;;;;;;4.35;3.72;;;;;;;;;;4989551;28;20059;-79
2023/06/10 09:00:06;;;;;;;5.88;4.13;;;;;;;;;;4981812;28;20058;-79
2023/06/10 09:02:35;;;;;;;4.50;4.00;;;;;;;;;;4999347;28;20062;-79
2023/06/10 09:05:02;;;;;;;5.10;4.53;;;;;;;;;;4983478;28;20129;-78
2023/06/10 09:07:31;;;;;;;3.83;3.53;;;;;;;;;;4994114;28;20443;-79
2023/06/10 09:09:58;;;;;;;4.30;3.92;;;;;;;;;;4997600;28;20157;-78
2023/06/10 09:12:25;;;;;;;4.20;3.80;;;;;;;;;;5009374;28;20050;-79
2023/06/10 09:14:53;;;;;;;4.40;3.92;;;;;;;;;;4988936;28;20051;-79
2023/06/10 09:17:20;;;;;;;4.55;4.20;;;;;;;;;;4979248;28;20430;-79
2023/06/10 09:19:47;;;;;;;4.40;4.00;;;;;;;;;;4963152;28;20046;-79
2023/06/10 09:22:14;;;;;;;4.95;3.65;;;;;;;;;;4962682;28;20046;-79
2023/06/10 09:24:41;;;;;;;3.92;3.58;;;;;;;;;;5005300;28;20038;-79
2023/06/10 09:27:08;;;;;;;4.95;4.15;;;;;;;;;;4986746;28;20534;-79
2023/06/10 09:29:53;;;;;;;5.05;3.67;;;;;;;;;;4942645;28;20423;-78
2023/06/10 09:32:20;;;;;;;4.25;3.65;;;;;;;;;;4973145;28;20058;-78
2023/06/10 09:34:47;;;;;;;4.15;3.75;;;;;;;;;;4975090;28;20046;-79
2023/06/10 09:37:22;;;;;;;4.03;3.72;;;;;;;;;;4976929;28;20046;-79
2023/06/10 09:40:05;;;;;;;4.10;3.65;;;;;;;;;;4959113;28;20418;-78
2023/06/10 09:42:38;;;;;;;4.13;3.67;;;;;;;;;;4975881;28;20070;-78
2023/06/10 09:45:07;;;;;;;4.03;3.47;;;;;;;;;;4958433;28;20051;-80
2023/06/10 09:47:34;;;;;;;3.60;3.30;;;;;;;;;;4965757;28;20459;-78
2023/06/10 09:50:01;;;;;;;4.22;3.72;;;;;;;;;;4986972;28;20046;-78
2023/06/10 09:52:29;;;;;;;3.85;3.55;;;;;;;;;;4985423;28;20062;-78
2023/06/10 09:55:01;;;;;;;4.07;3.67;;;;;;;;;;4962786;28;20042;-78
2023/06/10 09:57:35;;;;;;;4.07;3.67;;;;;;;;;;4948643;28;20054;-78
2023/06/10 10:00:10;;;;;;;3.97;3.40;;;;;;;;;;4972936;28;20051;-78
2023/06/10 10:02:48;;;;;;;4.25;3.63;;;;;;;;;;4976580;28;20089;-78
2023/06/10 10:05:16;;;;;;;3.40;3.10;;;;;;;;;;4989043;28;20054;-78
2023/06/10 10:07:44;;;;;;;4.32;3.85;;;;;;;;;;4976214;28;20105;-78
2023/06/10 10:10:12;;;;;;;4.50;4.10;;;;;;;;;;4977623;28;20058;-78
2023/06/10 10:12:39;;;;;;;4.30;4.00;;;;;;;;;;4962747;28;20054;-78
2023/06/10 10:15:08;;;;;;;4.07;3.67;;;;;;;;;;4962625;28;20046;-79
2023/06/10 10:18:06;;;;;;;4.60;3.65;;;;;;;;;;4969354;28;20054;-79
2023/06/10 10:20:34;;;;;;;3.53;3.22;;;;;;;;;;4974208;28;20059;-79
2023/06/10 10:23:03;;;;;;;3.85;3.55;;;;;;;;;;4983813;28;20461;-79
2023/06/10 10:25:34;;;;;;;3.83;3.53;;;;;;;;;;4968421;28;20054;-80
2023/06/10 10:28:10;;;;;;;3.42;3.17;;;;;;;;;;4980652;28;20516;-78
2023/06/10 10:30:45;;;;;;;3.88;3.55;;;;;;;;;;4967627;28;20134;-76
2023/06/10 10:33:36;;;;;;;6.13;3.90;;;;;;;;;;4983601;28;20042;-77
2023/06/10 10:36:04;;;;;;;4.60;4.20;;;;;;;;;;4963381;28;20464;-76
2023/06/10 10:38:31;;;;;;;4.30;3.95;;;;;;;;;;4979579;28;20065;-76
2023/06/10 10:40:59;;;;;;;4.38;3.70;;;;;;;;;;4976595;28;20499;-75
2023/06/10 10:43:27;;;;;;;3.65;3.35;;;;;;;;;;4956593;28;20054;-76
2023/06/10 10:46:04;;;;;;;4.57;3.63;;;;;;;;;;4987260;28;20050;-76
2023/06/10 10:48:38;;;;;;;3.90;3.58;;;;;;;;;;4961631;28;20140;-76
2023/06/10 10:51:05;;;;;;;4.20;3.85;;;;;;;;;;4976786;28;20064;-77
2023/06/10 10:53:32;;;;;;;3.63;3.33;;;;;;;;;;4993184;28;20047;-76
2023/06/10 10:56:06;;;;;;;3.53;3.22;;;;;;;;;;4981381;28;20043;-76
2023/06/10 10:58:34;;;;;;;3.78;3.38;;;;;;;;;;4984489;28;20074;-77
2023/06/10 11:01:14;;;;;;;3.90;3.60;;;;;;;;;;5001297;28;20574;-79
2023/06/10 11:03:47;;;;;;;4.05;3.50;;;;;;;;;;5017619;28;20046;-81
2023/06/10 11:06:15;;;;;;;5.15;3.63;;;;;;;;;;4979750;28;20105;-84
2023/06/10 11:08:47;;;;;;;4.05;3.53;;;;;;;;;;4988589;28;20050;-82
2023/06/10 11:11:25;;;;;;;3.70;3.35;;;;;;;;;;5006115;28;20050;-83
2023/06/10 11:14:01;;;;;;;3.42;3.13;;;;;;;;;;4975968;28;20049;-81
2023/06/10 11:16:29;;;;;;;3.63;3.33;;;;;;;;;;4994339;28;20070;-82
2023/06/10 11:18:56;;;;;;;4.03;3.65;;;;;;;;;;4991040;28;20077;-80
2023/06/10 11:21:26;;;;;;;3.70;3.40;;;;;;;;;;4997147;28;20079;-83
2023/06/10 11:24:00;;;;;;;4.57;3.30;;;;;;;;;;5007339;28;20081;-82
2023/06/10 11:26:31;;;;;;;4.95;3.63;;;;;;;;;;4988526;28;20086;-84
2023/06/10 11:28:57;;;;;;;3.78;3.45;;;;;;;;;;5004245;28;20125;-83
2023/06/10 11:31:39;;;;;;;3.35;3.10;;;;;;;;;;5010655;28;20120;-83
2023/06/10 11:34:07;;;;;;;4.00;3.55;;;;;;;;;;4986967;28;20500;-77
2023/06/10 11:36:40;;;;;;;3.35;3.05;;;;;;;;;;4982035;28;20522;-77
2023/06/10 11:39:08;;;;;;;3.70;3.15;;;;;;;;;;4982478;28;20053;-76
2023/06/10 11:41:36;;;;;;;3.40;3.10;;;;;;;;;;4981782;28;20061;-77
2023/06/10 11:44:07;;;;;;;5.57;4.22;;;;;;;;;;4984513;28;20414;-81
2023/06/10 11:46:35;;;;;;;3.58;3.15;;;;;;;;;;4968008;28;20062;-79
2023/06/10 11:49:02;;;;;;;3.25;2.97;;;;;;;;;;4981110;28;20120;-79
2023/06/10 11:51:35;;;;;;;3.58;3.13;;;;;;;;;;4993848;28;20078;-79
2023/06/10 11:54:02;;;;;;;4.70;3.30;;;;;;;;;;4996019;28;20046;-78
2023/06/10 11:56:30;;;;;;;4.22;2.97;;;;;;;;;;4980077;28;20105;-79
2023/06/10 11:59:03;;;;;;;2.72;2.53;;;;;;;;;;4963907;28;20054;-79
2023/06/10 12:01:32;;;;;;;3.47;3.05;;;;;;;;;;4995313;28;20128;-78
2023/06/10 12:04:07;;;;;;;3.45;2.78;;;;;;;;;;4996495;28;20430;-78
2023/06/10 12:06:47;;;;;;;3.15;2.92;;;;;;;;;;4995515;28;20648;-78
2023/06/10 12:09:21;;;;;;;3.13;2.53;;;;;;;;;;4995065;28;20146;-78
2023/06/10 12:11:58;;;;;;;2.47;2.28;;;;;;;;;;4993078;28;20482;-79
2023/06/10 12:14:54;;;;;;;3.83;2.83;;;;;;;;;;4991812;28;20046;-79
2023/06/10 12:17:32;;;;;;;3.67;2.85;;;;;;;;;;4996674;28;20057;-79
2023/06/10 12:20:07;;;;;;;4.10;3.00;;;;;;;;;;4980691;28;20073;-79
2023/06/10 12:22:41;;;;;;;3.20;2.90;;;;;;;;;;4995574;28;20054;-79
2023/06/10 12:25:09;;;;;;;2.67;2.47;;;;;;;;;;4995085;28;20128;-78
2023/06/10 12:27:37;;;;;;;4.70;3.40;;;;;;;;;;4998323;28;20060;-80
2023/06/10 12:30:05;;;;;;;2.85;2.65;;;;;;;;;;4967195;28;20047;-86
2023/06/10 12:32:36;;;;;;;3.17;2.95;;;;;;;;;;4964521;28;20281;-86
2023/06/10 12:35:04;;;;;;;2.88;2.67;;;;;;;;;;4979775;28;20057;-84
2023/06/10 12:37:35;;;;;;;3.38;2.70;;;;;;;;;;4978657;28;20057;-87
2023/06/10 12:40:08;;;;;;;4.00;2.90;;;;;;;;;;4979026;28;20499;-87
2023/06/10 12:42:38;;;;;;;3.17;2.92;;;;;;;;;;4964948;28;20053;-86
2023/06/10 12:45:06;;;;;;;3.05;2.83;;;;;;;;;;4987769;28;20119;-86
2023/06/10 12:47:38;;;;;;;3.53;2.85;;;;;;;;;;4992579;28;20082;-85
2023/06/10 12:50:06;;;;;;;2.67;2.45;;;;;;;;;;4989518;28;20050;-85
2023/06/10 12:52:33;;;;;;;3.50;2.72;;;;;;;;;;4957293;28;20051;-85
2023/06/10 12:55:00;;;;;;;3.70;2.50;;;;;;;;;;4957579;28;20055;-86
2023/06/10 12:57:27;;;;;;;2.78;2.35;;;;;;;;;;4973533;28;20066;-87
2023/06/10 13:00:00;;;;;;;3.28;2.97;;;;;;;;;;4964134;28;20050;-86
2023/06/10 13:02:27;;;;;;;3.20;2.60;;;;;;;;;;4977283;28;20077;-86
2023/06/10 13:04:54;;;;;;;2.38;2.17;;;;;;;;;;4983633;28;20125;-87
2023/06/10 13:07:22;;;;;;;3.45;2.70;;;;;;;;;;4985137;28;20050;-86
2023/06/10 13:09:49;;;;;;;3.33;2.50;;;;;;;;;;4963134;28;20114;-86
2023/06/10 13:12:17;;;;;;;3.00;2.47;;;;;;;;;;4970818;28;20057;-79
2023/06/10 13:14:56;;;;;;;3.05;2.10;;;;;;;;;;4991742;28;20054;-78
2023/06/10 13:17:23;;;;;;;2.75;2.50;;;;;;;;;;4994161;28;20050;-79
2023/06/10 13:19:50;;;;;;;2.60;2.40;;;;;;;;;;4976084;28;20545;-79
2023/06/10 13:22:19;;;;;;;2.60;2.40;;;;;;;;;;4995861;28;20054;-79
2023/06/10 13:24:46;;;;;;;3.97;2.90;;;;;;;;;;4994524;28;20077;-79
2023/06/10 13:27:15;;;;;;;2.92;2.70;;;;;;;;;;4969159;28;20054;-78
2023/06/10 13:29:42;;;;;;;2.58;2.38;;;;;;;;;;4986102;28;20050;-79
2023/06/10 13:32:09;;;;;;;4.15;2.95;;;;;;;;;;4976810;28;20061;-79
2023/06/10 13:34:36;;;;;;;2.83;2.50;;;;;;;;;;4988708;28;20047;-78
2023/06/10 13:37:04;;;;;;;2.83;2.45;;;;;;;;;;4982848;28;20113;-78
2023/06/10 13:39:32;;;;;;;3.05;2.70;;;;;;;;;;4992138;28;20062;-81
2023/06/10 13:41:59;;;;;;;2.63;2.40;;;;;;;;;;4985821;28;20050;-80
2023/06/10 13:44:25;;;;;;;2.95;2.17;;;;;;;;;;4994605;28;20096;-80
2023/06/10 13:46:52;;;;;;;2.70;2.50;;;;;;;;;;4980679;28;20050;-80
2023/06/10 13:49:19;;;;;;;3.30;2.70;;;;;;;;;;4994978;28;20046;-80
2023/06/10 13:51:46;;;;;;;3.47;2.80;;;;;;;;;;4991502;28;20121;-80
2023/06/10 13:54:15;;;;;;;2.55;2.35;;;;;;;;;;4985012;28;20051;-80
2023/06/10 13:56:42;;;;;;;3.50;2.33;;;;;;;;;;4957788;28;20063;-80
2023/06/10 13:59:09;;;;;;;2.80;2.30;;;;;;;;;;4964469;28;20086;-80
2023/06/10 14:01:36;;;;;;;2.47;2.30;;;;;;;;;;4976106;28;20466;-80
2023/06/10 14:04:04;;;;;;;2.78;2.58;;;;;;;;;;4970942;28;20074;-79
2023/06/10 14:06:32;;;;;;;4.65;2.60;;;;;;;;;;4977198;28;20054;-80
2023/06/10 14:09:00;;;;;;;2.50;2.30;;;;;;;;;;4995909;28;20534;-80
2023/06/10 14:11:26;;;;;;;2.95;2.75;;;;;;;;;;4960943;28;20059;-80
2023/06/10 14:13:56;;;;;;;2.67;2.47;;;;;;;;;;4990238;28;20078;-80
2023/06/10 14:16:23;;;;;;;2.60;2.50;;;;;;;;;;4993940;28;20399;-80
2023/06/10 14:18:50;;;;;;;3.30;2.65;;;;;;;;;;4986298;28;20050;-80
2023/06/10 14:21:17;;;;;;;3.22;2.60;;;;;;;;;;4972061;28;20047;-80
2023/06/10 14:23:45;;;;;;;2.70;2.50;;;;;;;;;;4989430;28;20062;-80
2023/06/10 14:26:12;;;;;;;3.15;2.70;;;;;;;;;;4989232;28;20412;-80
2023/06/10 14:28:39;;;;;;;3.05;2.85;;;;;;;;;;5010808;28;20050;-80
2023/06/10 14:31:07;;;;;;;3.13;2.88;;;;;;;;;;5001249;28;20046;-80
2023/06/10 14:33:34;;;;;;;2.58;2.38;;;;;;;;;;4995508;28;20137;-80
2023/06/10 14:36:01;;;;;;;3.20;2.80;;;;;;;;;;4981376;28;20046;-80
2023/06/10 14:38:28;;;;;;;3.20;2.90;;;;;;;;;;4995568;28;20054;-80
2023/06/10 14:40:55;;;;;;;2.80;2.60;;;;;;;;;;4995116;28;20047;-80
2023/06/10 14:43:21;;;;;;;2.92;2.72;;;;;;;;;;4996243;28;20113;-80
2023/06/10 14:45:50;;;;;;;3.50;2.92;;;;;;;;;;4959531;28;20057;-80
2023/06/10 14:48:17;;;;;;;3.30;3.10;;;;;;;;;;4992865;28;20050;-81
2023/06/10 14:50:46;;;;;;;3.25;2.88;;;;;;;;;;4984571;28;20054;-80
2023/06/10 14:53:13;;;;;;;3.13;2.92;;;;;;;;;;4996648;28;20588;-82